M I D A S
Marine Information and Data Acquisition System
Tripno 645 of the Zeeleeuw from 2004-02-10 07:25:09 to 2004-02-10 16:58:56
Back to CruiseResearch ActivitiesStationsMapUnderway DataData graphs

EquipmentUnitsComment
TimeDGPSUTC
LatitudeDGPSDM.mWGS84
LongitudeDGPSDM.mWGS84
HeadingGyrodeg 
SOGDGPSknotsSpeed over ground
COGDGPSdegCourse over ground
DepthEcho soundermeters200 kHz
Missing or incorrect values are displayed as -999
Navigation data collected by the RV Zeeleeuw from 2004-02-10 07:25:09 to 2004-02-10 16:58:56
                                                                                    Next 1000 lines
Time Latitude Longitude Heading SOG COG Depth
2004-02-10 07:25:20 51°13.59 2°56.107 114.5 0.7 285 6.6
2004-02-10 07:25:24 51°13.591 2°56.105 114.3 1.3 291 6.7
2004-02-10 07:25:29 51°13.592 2°56.101 114.3 1.4 291 6.6
2004-02-10 07:25:34 51°13.593 2°56.097 114.6 2 292 -999
2004-02-10 07:25:40 51°13.595 2°56.092 114.8 2.3 293 -999
2004-02-10 07:25:45 51°13.597 2°56.086 115.1 2.5 292 -999
2004-02-10 07:25:50 51°13.599 2°56.081 115.1 2.7 293 -999
2004-02-10 07:25:55 51°13.6 2°56.075 115.3 2.8 292 -999
2004-02-10 07:26:00 51°13.602 2°56.069 115.4 3 293 -999
2004-02-10 07:26:05 51°13.603 2°56.062 115.9 3.2 292 -999
2004-02-10 07:26:10 51°13.605 2°56.056 116.4 3.3 293 -999
2004-02-10 07:26:14 51°13.606 2°56.05 117.1 3.4 293 -999
2004-02-10 07:26:20 51°13.609 2°56.041 117.5 3.5 293 -999
2004-02-10 07:26:25 51°13.611 2°56.034 118.2 3.7 294 -999
2004-02-10 07:26:30 51°13.613 2°56.026 118.6 3.8 294 -999
2004-02-10 07:26:35 51°13.616 2°56.018 119.2 3.9 295 -999
2004-02-10 07:26:40 51°13.618 2°56.01 119.8 4.1 296 -999
2004-02-10 07:26:45 51°13.621 2°56.001 120.5 4.2 297 -999
2004-02-10 07:26:50 51°13.623 2°55.993 121.1 4.3 297 -999
2004-02-10 07:26:55 51°13.626 2°55.984 121.3 4.4 299 -999
2004-02-10 07:27:00 51°13.629 2°55.976 121.3 4.5 299 -999
2004-02-10 07:27:05 51°13.633 2°55.967 121.4 4.6 299 -999
2004-02-10 07:27:10 51°13.636 2°55.957 121.2 4.6 299 -999
2004-02-10 07:27:15 51°13.639 2°55.948 120.8 4.7 298 -999
2004-02-10 07:27:20 51°13.642 2°55.939 120.2 4.7 298 -999
2004-02-10 07:27:25 51°13.645 2°55.93 119.2 4.7 297 -999
2004-02-10 07:27:30 51°13.648 2°55.92 118.1 4.7 297 -999
2004-02-10 07:27:35 51°13.651 2°55.911 116.8 4.8 296 -999
2004-02-10 07:27:40 51°13.654 2°55.901 115.4 4.8 295 -999
2004-02-10 07:27:45 51°13.656 2°55.891 113.7 4.7 293 -999
2004-02-10 07:27:50 51°13.659 2°55.882 112 4.8 292 -999
2004-02-10 07:27:55 51°13.661 2°55.872 110.1 4.8 291 -999
2004-02-10 07:28:00 51°13.663 2°55.862 108.2 4.8 289 -999
2004-02-10 07:28:05 51°13.665 2°55.851 106.6 4.8 288 -999
2004-02-10 07:28:10 51°13.667 2°55.841 105 4.8 286 -999
2004-02-10 07:28:15 51°13.669 2°55.831 103.5 4.8 285 -999
2004-02-10 07:28:20 51°13.67 2°55.821 102 4.7 285 -999
2004-02-10 07:28:25 51°13.671 2°55.812 100.9 4.4 283 -999
2004-02-10 07:28:30 51°13.672 2°55.803 99.9 4.1 282 -999
2004-02-10 07:28:34 51°13.673 2°55.797 97.8 3.7 282 9.4
2004-02-10 07:28:39 51°13.674 2°55.79 96.5 3.5 282 9.9
2004-02-10 07:28:44 51°13.675 2°55.784 95 2.7 283 10
2004-02-10 07:28:50 51°13.675 2°55.78 92.3 2.3 283 10.1
2004-02-10 07:28:54 51°13.676 2°55.779 87.8 1.2 292 10.4
2004-02-10 07:29:00 51°13.677 2°55.779 82 0.6 2 10.5
2004-02-10 07:29:04 51°13.678 2°55.781 74.3 1.1 34 10.9
2004-02-10 07:29:09 51°13.68 2°55.783 67.1 1.6 41 11.5
2004-02-10 07:29:14 51°13.682 2°55.785 58.4 1.7 31 11.1
2004-02-10 07:29:19 51°13.684 2°55.786 52.9 1.5 30 11.5
2004-02-10 07:29:24 51°13.685 2°55.786 49.2 0.7 1 11.8
2004-02-10 07:29:30 51°13.685 2°55.785 44.9 0.5 319 11.9
2004-02-10 07:29:34 51°13.685 2°55.784 41 0.6 272 12.1
2004-02-10 07:29:40 51°13.684 2°55.781 37.9 0.9 248 12.1
2004-02-10 07:29:44 51°13.683 2°55.779 34.6 1.5 229 12.2
2004-02-10 07:29:49 51°13.681 2°55.776 32 1.7 225 -999
2004-02-10 07:29:55 51°13.68 2°55.773 29.7 1.6 226 -999
2004-02-10 07:30:00 51°13.68 2°55.772 26.8 1 245 -999
2004-02-10 07:30:05 51°13.681 2°55.771 22.2 0.8 336 -999
2004-02-10 07:30:09 51°13.683 2°55.77 15.9 1.7 347 -999
2004-02-10 07:30:15 51°13.687 2°55.769 3.9 2.4 349 -999
2004-02-10 07:30:20 51°13.691 2°55.767 354.1 2.5 345 -999
2004-02-10 07:30:24 51°13.694 2°55.765 348.3 2.8 336 13.1
2004-02-10 07:30:29 51°13.698 2°55.762 342.1 3.2 333 13.3
2004-02-10 07:30:34 51°13.703 2°55.757 336.9 3.9 327 13.1
2004-02-10 07:30:40 51°13.709 2°55.75 331.7 4.3 325 12.9
2004-02-10 07:30:44 51°13.714 2°55.746 329.2 4.6 325 11.9
2004-02-10 07:30:49 51°13.72 2°55.739 328.5 5.1 324 10.6
2004-02-10 07:30:54 51°13.726 2°55.731 328.9 5.6 324 9.9
2004-02-10 07:31:00 51°13.734 2°55.723 329.8 5.7 324 9.5
2004-02-10 07:31:04 51°13.74 2°55.716 330.7 6.1 325 9.7
2004-02-10 07:31:09 51°13.747 2°55.709 330.9 6.3 326 9.2
2004-02-10 07:31:14 51°13.755 2°55.701 331.2 6.5 326 9
2004-02-10 07:31:18 51°13.761 2°55.694 331.7 6.7 327 9
2004-02-10 07:31:24 51°13.771 2°55.684 332.4 7 327 9
2004-02-10 07:31:29 51°13.779 2°55.676 333.1 7.1 328 9.2
2004-02-10 07:31:34 51°13.788 2°55.667 333.6 7.3 329 9.2
2004-02-10 07:31:39 51°13.797 2°55.659 334.3 6.1 330 9.3
2004-02-10 07:31:44 51°13.806 2°55.65 335.1 7.4 331 9.6
2004-02-10 07:31:49 51°13.816 2°55.642 336 7.9 332 9.6
2004-02-10 07:31:54 51°13.825 2°55.634 337.1 7.9 333 9.6
2004-02-10 07:31:58 51°13.833 2°55.628 338.1 7.9 333 9.3
2004-02-10 07:32:04 51°13.845 2°55.619 338.9 8.1 335 9
2004-02-10 07:32:09 51°13.855 2°55.611 339.3 8.1 335 8.9
2004-02-10 07:32:15 51°13.868 2°55.602 339.5 8.2 336 9.5
2004-02-10 07:32:20 51°13.878 2°55.595 340.1 8.2 336 9
2004-02-10 07:32:24 51°13.887 2°55.589 340.4 8.3 336 8.9
2004-02-10 07:32:29 51°13.897 2°55.581 340.4 8.3 336 8.9
2004-02-10 07:32:34 51°13.908 2°55.574 340.1 8.4 336 8.8
2004-02-10 07:32:38 51°13.916 2°55.568 339.8 8.4 336 9
2004-02-10 07:32:44 51°13.929 2°55.559 340.4 8.4 337 8.9
2004-02-10 07:32:49 51°13.94 2°55.551 340.5 8.5 336 8.8
2004-02-10 07:32:54 51°13.951 2°55.544 340.4 8.5 336 8.9
2004-02-10 07:33:00 51°13.964 2°55.534 340.3 8.5 336 8.9
2004-02-10 07:33:04 51°13.972 2°55.528 340.2 8.5 336 8.8
2004-02-10 07:33:09 51°13.983 2°55.52 340.2 8.5 336 8.8
2004-02-10 07:33:14 51°13.993 2°55.512 340.2 8.5 336 8.7
2004-02-10 07:33:20 51°14.006 2°55.503 340.3 8.5 336 8.5
2004-02-10 07:33:24 51°14.015 2°55.497 340.2 8.5 336 8.3
2004-02-10 07:33:29 51°14.025 2°55.489 340.2 8.5 336 8.3
2004-02-10 07:33:34 51°14.036 2°55.482 340.4 8.5 336 8.3
2004-02-10 07:33:39 51°14.047 2°55.474 340.4 8.5 336 8.2
2004-02-10 07:33:44 51°14.058 2°55.466 340.5 8.6 336 8.2
2004-02-10 07:33:49 51°14.069 2°55.458 340.5 8.6 335 8.2
2004-02-10 07:33:54 51°14.08 2°55.45 340.3 8.7 336 8.1
2004-02-10 07:33:58 51°14.089 2°55.444 340.1 8.9 335 8.1
2004-02-10 07:34:04 51°14.103 2°55.433 340.1 9.2 335 8.2
2004-02-10 07:34:09 51°14.114 2°55.424 340.1 9.3 335 8.1
2004-02-10 07:34:14 51°14.126 2°55.415 339 9.5 334 8.2
2004-02-10 07:34:20 51°14.14 2°55.403 338.1 9.6 333 8.9
2004-02-10 07:34:24 51°14.15 2°55.395 337.2 9.8 332 8.5
2004-02-10 07:34:29 51°14.162 2°55.383 336.5 10.1 331 9.1
2004-02-10 07:34:34 51°14.174 2°55.372 335.3 10.3 329 9.2
2004-02-10 07:34:40 51°14.189 2°55.357 334.1 10.4 328 9.3
2004-02-10 07:34:44 51°14.198 2°55.346 331.7 10.4 325 8.9
2004-02-10 07:34:49 51°14.21 2°55.333 329.9 10.5 324 8.9
2004-02-10 07:34:54 51°14.222 2°55.318 328.3 10.6 322 8.9
2004-02-10 07:34:58 51°14.231 2°55.306 326.8 10.7 321 9.4
2004-02-10 07:35:04 51°14.245 2°55.287 325.6 11 318 9
2004-02-10 07:35:09 51°14.256 2°55.27 322.9 11.2 316 8.9
2004-02-10 07:35:14 51°14.268 2°55.251 320.8 11.4 313 9.1
2004-02-10 07:35:18 51°14.276 2°55.236 317.8 11.4 312 9
2004-02-10 07:35:24 51°14.289 2°55.213 316.2 11.7 310 9
2004-02-10 07:35:29 51°14.299 2°55.193 314.9 11.7 309 9
2004-02-10 07:35:34 51°14.309 2°55.172 313.7 11.8 308 9
2004-02-10 07:35:39 51°14.319 2°55.151 312.6 11.9 307 9.1
2004-02-10 07:35:44 51°14.329 2°55.13 312 11.9 307 9.1
2004-02-10 07:35:49 51°14.34 2°55.11 312.3 12 308 9.2
2004-02-10 07:35:54 51°14.351 2°55.089 313.7 12.1 310 9.1
2004-02-10 07:36:00 51°14.364 2°55.065 316 12.2 311 9.2
2004-02-10 07:36:04 51°14.374 2°55.05 317.8 12.2 314 9.5
2004-02-10 07:36:09 51°14.386 2°55.031 318.9 12.3 314 9.6
2004-02-10 07:36:14 51°14.398 2°55.011 320.1 12.3 315 9.8
2004-02-10 07:36:18 51°14.408 2°54.996 320.7 12.4 314 9.6
2004-02-10 07:36:24 51°14.422 2°54.972 320.8 12.5 313 9.5
2004-02-10 07:36:30 51°14.436 2°54.947 320.4 12.5 312 9.6
2004-02-10 07:36:34 51°14.445 2°54.93 319.3 12.5 311 9.6
2004-02-10 07:36:40 51°14.457 2°54.903 316.4 12.5 308 9.5
2004-02-10 07:36:44 51°14.465 2°54.884 313.2 12.6 304 9.4
2004-02-10 07:36:49 51°14.474 2°54.861 311 12.6 302 9.3
2004-02-10 07:36:54 51°14.483 2°54.837 309.3 12.4 301 9.4
2004-02-10 07:36:58 51°14.49 2°54.819 308.6 12.1 300 9.3
2004-02-10 07:37:04 51°14.5 2°54.792 307.7 11.7 300 9.2
2004-02-10 07:37:09 51°14.507 2°54.77 306.7 11.5 299 9.4
2004-02-10 07:37:14 51°14.515 2°54.748 306.5 11.1 299 9.5
2004-02-10 07:37:18 51°14.52 2°54.732 306.6 10.8 299 9.4
2004-02-10 07:37:24 51°14.529 2°54.707 306.5 10.5 298 9.6
2004-02-10 07:37:29 51°14.535 2°54.687 306.6 10.2 299 9.3
2004-02-10 07:37:34 51°14.542 2°54.668 307.5 10 299 9.3
2004-02-10 07:37:38 51°14.547 2°54.653 308.8 9.8 300 9.3
2004-02-10 07:37:44 51°14.555 2°54.632 309.5 9.5 300 9.2
2004-02-10 07:37:49 51°14.562 2°54.614 309.8 9.5 300 9.1
2004-02-10 07:37:54 51°14.568 2°54.597 310.2 9.1 301 9.1
2004-02-10 07:38:00 51°14.576 2°54.576 310.6 9.1 302 9.2
2004-02-10 07:38:04 51°14.582 2°54.563 311.5 8.9 303 9.2
2004-02-10 07:38:10 51°14.59 2°54.544 312.2 8.8 303 9.2
2004-02-10 07:38:14 51°14.595 2°54.531 312.6 8.8 304 9.3
2004-02-10 07:38:20 51°14.603 2°54.512 312.8 8.6 304 9.3
2004-02-10 07:38:24 51°14.609 2°54.498 312.6 9.5 304 9.3
2004-02-10 07:38:29 51°14.617 2°54.479 312.3 10 304 9.3
2004-02-10 07:38:34 51°14.625 2°54.46 311.6 10.6 303 9.2
2004-02-10 07:38:40 51°14.635 2°54.435 311.4 10.9 303 9.1
2004-02-10 07:38:44 51°14.643 2°54.419 312.5 11.4 305 9.3
2004-02-10 07:38:49 51°14.652 2°54.398 312.8 11.6 305 9.2
2004-02-10 07:38:54 51°14.661 2°54.376 312.6 12 304 9.3
2004-02-10 07:38:58 51°14.669 2°54.358 311.4 12.1 303 9.3
2004-02-10 07:39:04 51°14.68 2°54.331 310.9 12.3 304 9.3
2004-02-10 07:39:09 51°14.69 2°54.308 310.6 12.4 304 9.2
2004-02-10 07:39:14 51°14.7 2°54.285 311.6 12.8 307 9.2
2004-02-10 07:39:20 51°14.714 2°54.258 313 12.9 307 9.2
2004-02-10 07:39:24 51°14.723 2°54.24 315.8 13.2 310 9.1
2004-02-10 07:39:29 51°14.734 2°54.217 315.8 13.2 308 9.1
2004-02-10 07:39:34 51°14.745 2°54.193 314.9 13.3 307 9
2004-02-10 07:39:39 51°14.756 2°54.168 311.9 13.6 304 8.8
2004-02-10 07:39:44 51°14.766 2°54.143 310.3 13.5 304 8.8
2004-02-10 07:39:49 51°14.776 2°54.117 308.8 13.7 301 8.9
2004-02-10 07:39:54 51°14.786 2°54.091 307.8 13.8 300 8.8
2004-02-10 07:40:00 51°14.797 2°54.059 307.1 13.7 300 8.6
2004-02-10 07:40:04 51°14.804 2°54.038 306.4 13.7 299 8.6
2004-02-10 07:40:09 51°14.813 2°54.011 305.5 13.7 299 8.5
2004-02-10 07:40:14 51°14.823 2°53.984 304.8 13.8 298 8.5
2004-02-10 07:40:19 51°14.832 2°53.957 304.5 13.8 298 8.6
2004-02-10 07:40:24 51°14.84 2°53.93 304.4 13.8 298 8.8
2004-02-10 07:40:29 51°14.849 2°53.903 304 13.9 297 8.6
2004-02-10 07:40:34 51°14.858 2°53.875 303.5 13.9 297 8.6
2004-02-10 07:40:40 51°14.868 2°53.842 303.3 14 297 8.4
2004-02-10 07:40:44 51°14.876 2°53.82 303.1 13.9 297 8.6
2004-02-10 07:40:49 51°14.884 2°53.793 303.1 13.9 297 8.7
2004-02-10 07:40:54 51°14.893 2°53.765 303.3 14 297 8.8
2004-02-10 07:40:59 51°14.902 2°53.738 303.4 14 297 8.7
2004-02-10 07:41:04 51°14.911 2°53.71 303.6 14.1 297 8.6
2004-02-10 07:41:09 51°14.92 2°53.683 303.9 14 298 8.4
2004-02-10 07:41:14 51°14.929 2°53.655 303.9 14 298 8.7
2004-02-10 07:41:20 51°14.94 2°53.622 304.1 14 298 8.5
2004-02-10 07:41:24 51°14.947 2°53.6 304.3 14.1 298 8.6
2004-02-10 07:41:29 51°14.956 2°53.573 305 14.2 299 8.8
2004-02-10 07:41:34 51°14.966 2°53.546 305.2 14.2 298 8.6
2004-02-10 07:41:40 51°14.978 2°53.512 305.5 14.1 299 8.7
2004-02-10 07:41:44 51°14.985 2°53.491 305.7 14.3 298 8.8
2004-02-10 07:41:49 51°14.995 2°53.463 305.8 14.3 299 8.7
2004-02-10 07:41:54 51°15.005 2°53.436 306 14.2 299 8.6
2004-02-10 07:42:00 51°15.016 2°53.403 306.1 14.2 300 8.7
2004-02-10 07:42:04 51°15.024 2°53.382 306.3 14.2 299 8.7
2004-02-10 07:42:09 51°15.034 2°53.355 306.2 14.1 300 8.6
2004-02-10 07:42:14 51°15.044 2°53.327 306.2 14.1 300 8.6
2004-02-10 07:42:20 51°15.055 2°53.295 305.9 14.2 300 8.7
2004-02-10 07:42:24 51°15.063 2°53.273 305.5 14.2 299 9
2004-02-10 07:42:29 51°15.073 2°53.245 305.3 14.3 299 9
2004-02-10 07:42:34 51°15.082 2°53.217 304.8 14.3 298 8.8
2004-02-10 07:42:40 51°15.093 2°53.184 303.9 14.3 298 8.7
2004-02-10 07:42:44 51°15.1 2°53.161 303.6 14.3 297 9
2004-02-10 07:42:50 51°15.111 2°53.127 303.6 14.3 298 8.9
2004-02-10 07:42:54 51°15.119 2°53.105 304.2 14.3 299 8.9
2004-02-10 07:42:58 51°15.126 2°53.083 305 14.3 298 8.9
2004-02-10 07:43:04 51°15.138 2°53.05 305.5 14.4 299 9.1
2004-02-10 07:43:09 51°15.148 2°53.022 306.1 14.4 300 8.9
2004-02-10 07:43:14 51°15.158 2°52.994 306.5 14.4 300 9.1
2004-02-10 07:43:18 51°15.166 2°52.972 306.4 14.4 299 8.9
2004-02-10 07:43:24 51°15.177 2°52.938 304.8 14.4 297 9.4
2004-02-10 07:43:30 51°15.187 2°52.904 303.8 14.5 297 9.3
2004-02-10 07:43:34 51°15.194 2°52.881 302.8 14.5 296 9.3
2004-02-10 07:43:38 51°15.201 2°52.857 301.9 14.5 295 9.5
2004-02-10 07:43:44 51°15.211 2°52.822 301.3 14.6 294 9.6
2004-02-10 07:43:48 51°15.218 2°52.799 300.5 14.5 293 9.7
2004-02-10 07:43:54 51°15.227 2°52.764 300.4 14.5 294 9.7
2004-02-10 07:43:58 51°15.234 2°52.74 300.5 14.6 294 9.7
2004-02-10 07:44:04 51°15.244 2°52.705 301 14.6 294 9.8
2004-02-10 07:44:09 51°15.252 2°52.675 301.4 14.6 294 9.9
2004-02-10 07:44:14 51°15.261 2°52.646 301.6 14.6 295 10
2004-02-10 07:44:18 51°15.268 2°52.623 302.5 14.6 296 10
2004-02-10 07:44:24 51°15.278 2°52.588 302.5 14.6 295 10
2004-02-10 07:44:29 51°15.287 2°52.559 302.8 14.4 297 10
2004-02-10 07:44:34 51°15.296 2°52.531 303.1 14.5 296 10.1
2004-02-10 07:44:40 51°15.306 2°52.496 302.7 14.6 296 10.2
2004-02-10 07:44:44 51°15.314 2°52.473 302.9 14.5 297 10.2
2004-02-10 07:44:49 51°15.322 2°52.444 302.7 14.5 296 10.3
2004-02-10 07:44:54 51°15.331 2°52.415 302.8 14.5 297 10.4
2004-02-10 07:44:58 51°15.338 2°52.392 302.5 14.5 295 10.3
2004-02-10 07:45:04 51°15.346 2°52.356 299.4 14.4 290 10.5
2004-02-10 07:45:09 51°15.352 2°52.325 296.1 14.4 288 10.6
2004-02-10 07:45:14 51°15.358 2°52.294 293.3 14.5 285 10.5
2004-02-10 07:45:20 51°15.363 2°52.257 291 14.5 284 10.6
2004-02-10 07:45:24 51°15.367 2°52.232 290 14.5 283 10.6
2004-02-10 07:45:29 51°15.372 2°52.201 288.8 14.5 283 10.7
2004-02-10 07:45:34 51°15.376 2°52.169 288.1 14.5 282 10.6
2004-02-10 07:45:40 51°15.381 2°52.132 288.1 14.6 282 10.6
2004-02-10 07:45:44 51°15.384 2°52.107 288 14.5 283 10.7
2004-02-10 07:45:49 51°15.389 2°52.075 288.1 14.5 282 10.9
2004-02-10 07:45:54 51°15.393 2°52.044 288.3 14.5 283 10.8
2004-02-10 07:45:58 51°15.395 2°52.018 286.7 14.6 279 10.8
2004-02-10 07:46:04 51°15.399 2°51.98 285.1 14.5 279 10.9
2004-02-10 07:46:09 51°15.402 2°51.948 284 14.6 278 11
2004-02-10 07:46:14 51°15.405 2°51.917 283.5 14.6 278 10.9
2004-02-10 07:46:20 51°15.408 2°51.878 283.1 14.6 277 11
2004-02-10 07:46:25 51°15.41 2°51.846 282.5 14.6 277 11.1
2004-02-10 07:46:29 51°15.412 2°51.821 281.7 14.6 276 11.1
2004-02-10 07:46:34 51°15.414 2°51.789 281.6 14.5 277 11.2
2004-02-10 07:46:39 51°15.416 2°51.757 281.4 14.5 276 11.1
2004-02-10 07:46:44 51°15.418 2°51.725 281 14.6 276 11.1
2004-02-10 07:46:50 51°15.421 2°51.686 280.8 14.6 276 11.1
2004-02-10 07:46:54 51°15.422 2°51.66 280.9 14.6 275 11.2
2004-02-10 07:47:00 51°15.425 2°51.622 281 14.6 275 11.3
2004-02-10 07:47:04 51°15.426 2°51.596 281 14.6 276 11.3
2004-02-10 07:47:09 51°15.428 2°51.564 280.9 14.7 276 11.4
2004-02-10 07:47:14 51°15.43 2°51.531 281.3 14.6 276 11.4
2004-02-10 07:47:19 51°15.432 2°51.499 281 14.6 276 11.4
2004-02-10 07:47:24 51°15.434 2°51.467 281.3 14.6 276 11.5
2004-02-10 07:47:29 51°15.436 2°51.435 281.3 14.6 276 11.5
2004-02-10 07:47:34 51°15.438 2°51.403 281.5 14.7 276 11.5
2004-02-10 07:47:38 51°15.44 2°51.377 281.4 14.7 276 11.6
2004-02-10 07:47:44 51°15.443 2°51.338 281.6 14.7 276 11.7
2004-02-10 07:47:49 51°15.445 2°51.306 281.6 14.7 276 11.6
2004-02-10 07:47:54 51°15.447 2°51.274 281.8 14.7 276 11.7
2004-02-10 07:47:58 51°15.45 2°51.249 282.1 14.7 277 11.6
2004-02-10 07:48:04 51°15.452 2°51.21 282.1 14.6 277 11.6
2004-02-10 07:48:09 51°15.454 2°51.178 281.6 14.7 276 11.7
2004-02-10 07:48:14 51°15.457 2°51.146 281.5 14.6 277 11.6
2004-02-10 07:48:19 51°15.459 2°51.114 281.6 14.6 276 11.7
2004-02-10 07:48:24 51°15.461 2°51.081 281.4 14.6 276 11.8
2004-02-10 07:48:29 51°15.464 2°51.049 281.6 14.6 276 11.8
2004-02-10 07:48:34 51°15.466 2°51.017 281.6 14.6 277 11.8
2004-02-10 07:48:40 51°15.469 2°50.979 282.3 14.6 277 11.8
2004-02-10 07:48:44 51°15.471 2°50.954 282 14.5 277 11.8
2004-02-10 07:48:49 51°15.473 2°50.922 281.7 14.5 276 11.8
2004-02-10 07:48:54 51°15.476 2°50.89 281.7 14.6 277 11.8
2004-02-10 07:48:59 51°15.478 2°50.858 282.1 14.5 276 11.8
2004-02-10 07:49:04 51°15.481 2°50.826 281.9 14.6 277 11.8
2004-02-10 07:49:09 51°15.483 2°50.794 281.6 14.6 277 11.9
2004-02-10 07:49:14 51°15.486 2°50.762 281.8 14.6 277 11.8
2004-02-10 07:49:18 51°15.487 2°50.736 281.8 14.6 276 11.8
2004-02-10 07:49:24 51°15.49 2°50.698 281.9 14.6 277 11.9
2004-02-10 07:49:29 51°15.493 2°50.666 282 14.5 276 11.9
2004-02-10 07:49:34 51°15.495 2°50.634 281.6 14.6 277 11.9
2004-02-10 07:49:38 51°15.497 2°50.608 281.7 14.6 277 11.8
2004-02-10 07:49:44 51°15.499 2°50.57 281.6 14.5 276 11.9
2004-02-10 07:49:49 51°15.502 2°50.538 282 14.5 277 11.8
2004-02-10 07:49:54 51°15.504 2°50.506 281.6 14.5 277 11.8
2004-02-10 07:50:00 51°15.507 2°50.468 281.6 14.5 276 11.8
2004-02-10 07:50:04 51°15.509 2°50.442 281.6 14.6 276 11.9
2004-02-10 07:50:09 51°15.511 2°50.41 281.8 14.6 277 11.8
2004-02-10 07:50:14 51°15.514 2°50.378 282.3 14.5 277 11.9
2004-02-10 07:50:19 51°15.516 2°50.346 282.3 14.5 277 11.9
2004-02-10 07:50:24 51°15.519 2°50.314 281.8 14.5 277 11.8
2004-02-10 07:50:30 51°15.521 2°50.276 281.8 14.6 277 11.8
2004-02-10 07:50:34 51°15.523 2°50.25 282.1 14.5 277 11.9
2004-02-10 07:50:40 51°15.526 2°50.212 282.1 14.5 277 11.7
2004-02-10 07:50:44 51°15.528 2°50.186 282.4 14.5 277 11.8
2004-02-10 07:50:49 51°15.531 2°50.154 282.3 14.5 276 11.8
2004-02-10 07:50:55 51°15.534 2°50.116 282.2 14.5 278 11.7
2004-02-10 07:51:00 51°15.536 2°50.084 282.1 14.6 277 11.7
2004-02-10 07:51:04 51°15.539 2°50.059 282.5 14.5 278 11.8
2004-02-10 07:51:10 51°15.541 2°50.021 282.2 14.5 278 11.6
2004-02-10 07:51:14 51°15.544 2°49.995 282.1 14.6 277 11.7
2004-02-10 07:51:20 51°15.546 2°49.957 281.6 14.5 276 11.7
2004-02-10 07:51:24 51°15.548 2°49.931 281.6 14.6 277 11.7
2004-02-10 07:51:29 51°15.55 2°49.899 281.6 14.6 276 11.8
2004-02-10 07:51:34 51°15.553 2°49.868 282.2 14.5 278 11.9
2004-02-10 07:51:40 51°15.556 2°49.829 281.6 14.5 277 11.9
2004-02-10 07:51:44 51°15.558 2°49.803 282 14.6 278 11.8
2004-02-10 07:51:49 51°15.56 2°49.771 281.9 14.6 276 11.9
2004-02-10 07:51:54 51°15.562 2°49.739 281.6 14.6 277 11.9
2004-02-10 07:52:00 51°15.565 2°49.701 281.6 14.6 276 11.9
2004-02-10 07:52:04 51°15.567 2°49.675 281.5 14.7 276 11.9
2004-02-10 07:52:10 51°15.57 2°49.636 282.2 14.7 276 11.8
2004-02-10 07:52:14 51°15.572 2°49.611 282.1 14.6 277 11.9
2004-02-10 07:52:20 51°15.575 2°49.572 282.4 14.5 277 11.8
2004-02-10 07:52:24 51°15.577 2°49.547 282.2 14.6 277 11.6
2004-02-10 07:52:30 51°15.58 2°49.508 282.3 14.7 278 11.7
2004-02-10 07:52:34 51°15.582 2°49.483 282.9 14.6 277 11.5
2004-02-10 07:52:40 51°15.585 2°49.445 282.1 14.5 277 11.5
2004-02-10 07:52:44 51°15.587 2°49.419 282 14.6 277 11.4
2004-02-10 07:52:50 51°15.59 2°49.38 282.3 14.6 277 11.2
2004-02-10 07:52:54 51°15.592 2°49.355 281.8 14.5 277 11.1
2004-02-10 07:53:00 51°15.594 2°49.317 281.7 14.5 276 10.9
2004-02-10 07:53:04 51°15.596 2°49.292 281.7 14.4 277 10.8
2004-02-10 07:53:09 51°15.598 2°49.26 281.6 14.5 277 10.6
2004-02-10 07:53:14 51°15.601 2°49.228 282.1 14.5 278 10.4
2004-02-10 07:53:19 51°15.604 2°49.196 282.7 14.4 278 10.2
2004-02-10 07:53:24 51°15.606 2°49.165 282.3 14.4 277 10
2004-02-10 07:53:30 51°15.609 2°49.127 282.3 14.4 278 9.8
2004-02-10 07:53:34 51°15.612 2°49.101 282.4 14.4 277 9.8
2004-02-10 07:53:40 51°15.614 2°49.064 282.3 14.3 277 9.7
2004-02-10 07:53:44 51°15.616 2°49.038 281.8 14.4 277 9.5
2004-02-10 07:53:49 51°15.619 2°49.007 281.6 14.4 277 9.4
2004-02-10 07:53:54 51°15.621 2°48.975 281.5 14.4 276 9.3
2004-02-10 07:54:00 51°15.624 2°48.937 281.7 14.4 278 9.2
2004-02-10 07:54:04 51°15.626 2°48.912 282.3 14.4 277 9.2
2004-02-10 07:54:09 51°15.629 2°48.881 282.5 14.4 278 9.3
2004-02-10 07:54:14 51°15.631 2°48.849 282.3 14.4 277 9.2
2004-02-10 07:54:20 51°15.634 2°48.811 281.7 14.4 277 9.2
2004-02-10 07:54:24 51°15.636 2°48.786 281.7 14.4 277 9.1
2004-02-10 07:54:29 51°15.639 2°48.754 282 14.4 278 9.1
2004-02-10 07:54:34 51°15.641 2°48.723 282 14.4 277 9.2
2004-02-10 07:54:39 51°15.644 2°48.691 282.3 14.4 278 9.3
2004-02-10 07:54:44 51°15.647 2°48.659 282.7 14.5 276 9.3
2004-02-10 07:54:49 51°15.649 2°48.627 282.3 14.5 277 9.3
2004-02-10 07:54:54 51°15.652 2°48.596 282.2 14.5 278 9.4
2004-02-10 07:55:00 51°15.654 2°48.557 282.2 14.6 277 9.5
2004-02-10 07:55:04 51°15.657 2°48.532 282.4 14.6 279 9.5
2004-02-10 07:55:09 51°15.659 2°48.499 282.3 14.6 275 9.6
2004-02-10 07:55:14 51°15.662 2°48.467 282 14.7 277 9.7
2004-02-10 07:55:19 51°15.664 2°48.435 282.3 14.7 277 9.7
2004-02-10 07:55:24 51°15.666 2°48.403 282.2 14.7 278 9.7
2004-02-10 07:55:29 51°15.669 2°48.371 282.2 14.7 278 9.8
2004-02-10 07:55:34 51°15.672 2°48.338 282.4 14.8 277 9.9
2004-02-10 07:55:40 51°15.675 2°48.3 282.7 14.7 278 10
2004-02-10 07:55:44 51°15.677 2°48.274 282.3 14.7 277 10.1
2004-02-10 07:55:49 51°15.68 2°48.242 282.5 14.8 278 10.1
2004-02-10 07:55:54 51°15.682 2°48.209 282.7 14.8 278 10.4
2004-02-10 07:55:59 51°15.684 2°48.177 282.2 14.8 276 10.4
2004-02-10 07:56:04 51°15.687 2°48.144 282.2 14.7 277 10.6
2004-02-10 07:56:09 51°15.69 2°48.112 282.3 14.8 277 10.6
2004-02-10 07:56:14 51°15.692 2°48.079 282.1 14.9 277 10.7
2004-02-10 07:56:20 51°15.696 2°48.041 282.4 14.9 277 10.8
2004-02-10 07:56:24 51°15.698 2°48.015 282.7 14.7 277 11.1
2004-02-10 07:56:29 51°15.7 2°47.982 282.3 14.7 277 11.2
2004-02-10 07:56:34 51°15.702 2°47.95 282.2 14.8 276 11.3
2004-02-10 07:56:40 51°15.705 2°47.911 281.7 14.8 277 11.6
2004-02-10 07:56:44 51°15.707 2°47.885 281.7 14.8 278 11.6
2004-02-10 07:56:49 51°15.71 2°47.853 282.1 14.8 277 11.8
2004-02-10 07:56:54 51°15.712 2°47.82 282.5 14.8 277 12
2004-02-10 07:57:00 51°15.715 2°47.782 282.5 14.8 277 12.3
2004-02-10 07:57:04 51°15.718 2°47.756 283 14.8 277 12.4
2004-02-10 07:57:09 51°15.72 2°47.723 282.4 14.8 277 12.6
2004-02-10 07:57:14 51°15.723 2°47.691 282.8 14.8 276 12.7
2004-02-10 07:57:19 51°15.725 2°47.658 282.4 14.8 277 12.9
2004-02-10 07:57:24 51°15.728 2°47.625 282.5 14.8 278 13
2004-02-10 07:57:30 51°15.731 2°47.586 282.3 14.8 278 13
2004-02-10 07:57:34 51°15.732 2°47.56 282.3 14.8 276 13.1
2004-02-10 07:57:40 51°15.736 2°47.521 282.1 14.8 277 13.2
2004-02-10 07:57:44 51°15.737 2°47.495 282 14.8 276 13.2
2004-02-10 07:57:49 51°15.74 2°47.463 282.2 14.8 278 13.3
2004-02-10 07:57:54 51°15.742 2°47.43 282.2 14.8 277 13.4
2004-02-10 07:58:00 51°15.745 2°47.391 282.6 14.9 277 13.6
2004-02-10 07:58:04 51°15.747 2°47.364 282 14.9 276 13.7
2004-02-10 07:58:09 51°15.75 2°47.331 282.2 14.9 276 13.8
2004-02-10 07:58:14 51°15.752 2°47.299 282.2 14.8 278 13.9
2004-02-10 07:58:20 51°15.755 2°47.26 282.2 14.8 277 14
2004-02-10 07:58:24 51°15.757 2°47.234 281.4 14.9 277 14.3
2004-02-10 07:58:30 51°15.76 2°47.195 282.4 14.8 277 14.3
2004-02-10 07:58:34 51°15.762 2°47.169 282.3 14.8 277 14.4
2004-02-10 07:58:39 51°15.765 2°47.136 282.6 14.8 278 14.5
2004-02-10 07:58:44 51°15.767 2°47.104 282.6 14.8 277 14.6
2004-02-10 07:58:49 51°15.77 2°47.072 282.2 14.8 277 14.6
2004-02-10 07:58:54 51°15.772 2°47.039 282.5 14.8 277 14.7
2004-02-10 07:58:59 51°15.775 2°47.007 282.5 14.8 278 14.7
2004-02-10 07:59:04 51°15.778 2°46.974 283 14.8 278 14.8
2004-02-10 07:59:10 51°15.781 2°46.935 282.3 14.9 276 14.9
2004-02-10 07:59:15 51°15.784 2°46.903 282.9 14.8 278 15.3
2004-02-10 07:59:18 51°15.785 2°46.884 282.3 14.7 276 15.5
2004-02-10 07:59:24 51°15.788 2°46.845 281.8 14.8 278 15.5
2004-02-10 07:59:29 51°15.79 2°46.812 282.8 14.7 277 15.5
2004-02-10 07:59:34 51°15.793 2°46.78 282.3 14.7 276 15.5
2004-02-10 07:59:40 51°15.796 2°46.742 282.2 14.7 278 15.4
2004-02-10 07:59:44 51°15.798 2°46.716 282 14.7 277 15.7
2004-02-10 07:59:49 51°15.8 2°46.684 282.3 14.6 277 15.6
2004-02-10 07:59:54 51°15.803 2°46.652 282.2 14.7 277 15.5
2004-02-10 07:59:59 51°15.805 2°46.62 282.4 14.7 278 15.5
2004-02-10 08:00:04 51°15.808 2°46.588 282.8 14.5 277 15.6
2004-02-10 08:00:09 51°15.81 2°46.555 282 14.6 276 15.5
2004-02-10 08:00:14 51°15.813 2°46.523 282.4 14.6 278 15.6
2004-02-10 08:00:19 51°15.815 2°46.491 282.4 14.6 276 15.5
2004-02-10 08:00:24 51°15.817 2°46.459 282.3 14.6 278 15.3
2004-02-10 08:00:29 51°15.819 2°46.427 282.2 14.6 277 15.3
2004-02-10 08:00:34 51°15.822 2°46.395 282.2 14.5 277 15.3
2004-02-10 08:00:39 51°15.824 2°46.363 281.6 14.6 276 15.2
2004-02-10 08:00:44 51°15.826 2°46.331 281.7 14.7 276 15.1
2004-02-10 08:00:49 51°15.829 2°46.299 282.7 14.6 277 15.2
2004-02-10 08:00:54 51°15.831 2°46.267 282.3 14.4 276 15.2
2004-02-10 08:01:00 51°15.834 2°46.228 281.4 14.6 276 15
2004-02-10 08:01:04 51°15.836 2°46.202 282.3 14.7 277 14.9
2004-02-10 08:01:09 51°15.839 2°46.17 282.6 14.6 276 14.9
2004-02-10 08:01:14 51°15.842 2°46.138 282.5 14.5 278 14.7
2004-02-10 08:01:19 51°15.844 2°46.106 282.6 14.7 276 14.6
2004-02-10 08:01:24 51°15.847 2°46.074 283 14.7 278 14.6
2004-02-10 08:01:30 51°15.85 2°46.035 282.8 14.6 277 14.4
2004-02-10 08:01:35 51°15.853 2°46.003 283 14.6 278 14.3
2004-02-10 08:01:38 51°15.854 2°45.984 282.4 14.7 276 14
2004-02-10 08:01:44 51°15.857 2°45.946 282.9 14.6 278 14.1
2004-02-10 08:01:49 51°15.859 2°45.913 282.7 14.6 275 14
2004-02-10 08:01:54 51°15.862 2°45.881 281.7 14.8 277 13.7
2004-02-10 08:02:00 51°15.864 2°45.843 283.2 14.6 278 13
2004-02-10 08:02:04 51°15.866 2°45.817 282.1 14.6 276 13.1
2004-02-10 08:02:09 51°15.868 2°45.785 282.2 14.6 277 13.1
2004-02-10 08:02:14 51°15.871 2°45.753 282.4 14.6 276 12.9
2004-02-10 08:02:19 51°15.873 2°45.72 281.6 14.8 276 12.3
2004-02-10 08:02:24 51°15.876 2°45.688 283 14.7 277 12.4
2004-02-10 08:02:30 51°15.879 2°45.65 282.6 14.5 276 12.3
2004-02-10 08:02:34 51°15.88 2°45.625 282 14.4 276 12.1
2004-02-10 08:02:40 51°15.883 2°45.587 281.7 14.4 277 11.8
2004-02-10 08:02:44 51°15.885 2°45.561 281.5 14.7 277 11.8
2004-02-10 08:02:50 51°15.888 2°45.522 281.6 14.7 276 11.3
2004-02-10 08:02:54 51°15.89 2°45.496 282.1 14.6 276 10.9
2004-02-10 08:03:00 51°15.894 2°45.458 282.1 14.6 277 11.1
2004-02-10 08:03:04 51°15.895 2°45.433 283 14.5 280 10.8
2004-02-10 08:03:09 51°15.897 2°45.401 282.3 14.4 277 10.7
2004-02-10 08:03:14 51°15.9 2°45.37 282.3 14.3 277 10.6
2004-02-10 08:03:19 51°15.902 2°45.338 282.3 14.4 277 10.5
2004-02-10 08:03:24 51°15.905 2°45.306 281.9 14.7 277 10.5
2004-02-10 08:03:29 51°15.908 2°45.274 283 14.6 278 10.5
2004-02-10 08:03:34 51°15.911 2°45.242 283.7 14.6 279 10.7
2004-02-10 08:03:40 51°15.915 2°45.204 284.5 14.4 280 10.7
2004-02-10 08:03:44 51°15.918 2°45.179 284 14.6 279 10.6
2004-02-10 08:03:49 51°15.922 2°45.147 285.2 14.6 281 10.6
2004-02-10 08:03:54 51°15.925 2°45.116 285.6 14.5 280 10.6
2004-02-10 08:03:58 51°15.929 2°45.091 286.5 14.4 282 10.6
2004-02-10 08:04:04 51°15.933 2°45.053 286.9 14.7 282 10.7
2004-02-10 08:04:09 51°15.938 2°45.021 287.8 14.7 283 10.7
2004-02-10 08:04:14 51°15.943 2°44.99 288.8 14.7 283 10.7
2004-02-10 08:04:20 51°15.949 2°44.953 288.8 14.5 283 10.7
2004-02-10 08:04:24 51°15.952 2°44.927 288.5 14.6 284 10.6
2004-02-10 08:04:30 51°15.959 2°44.89 289 14.6 285 10.7
2004-02-10 08:04:34 51°15.963 2°44.865 290.3 14.4 287 9.5
2004-02-10 08:04:40 51°15.971 2°44.829 292 14.3 288 9.4
2004-02-10 08:04:44 51°15.977 2°44.806 295 14.2 292 9.8
2004-02-10 08:04:49 51°15.985 2°44.778 298 14.3 294 9.8
2004-02-10 08:04:54 51°15.995 2°44.75 301.9 14.3 297 9.8
2004-02-10 08:05:00 51°16.006 2°44.717 304.6 14.3 299 9.7
2004-02-10 08:05:04 51°16.014 2°44.696 307 14.2 302 9.8
2004-02-10 08:05:09 51°16.025 2°44.67 308.3 14.2 302 9.8
2004-02-10 08:05:14 51°16.036 2°44.643 309.1 14.3 303 9.6
2004-02-10 08:05:20 51°16.049 2°44.611 309.9 14.3 304 9.5
2004-02-10 08:05:25 51°16.059 2°44.585 310.1 14.3 304 9.4
2004-02-10 08:05:30 51°16.07 2°44.559 310.3 14.1 303 9.4
2004-02-10 08:05:34 51°16.079 2°44.539 310 14.1 304 9.2
2004-02-10 08:05:40 51°16.092 2°44.508 311.2 14.1 305 9.3
2004-02-10 08:05:44 51°16.102 2°44.488 312.4 14.3 307 9.4
2004-02-10 08:05:49 51°16.114 2°44.463 313.6 14.3 308 9.4
2004-02-10 08:05:54 51°16.127 2°44.438 314.9 14.3 308 9.4
2004-02-10 08:06:00 51°16.142 2°44.408 314.8 14.3 308 9.6
2004-02-10 08:06:04 51°16.151 2°44.388 315 14.3 308 9.5
2004-02-10 08:06:10 51°16.167 2°44.36 315.5 14.3 310 9.4
2004-02-10 08:06:14 51°16.177 2°44.34 316.1 14.2 309 9.4
2004-02-10 08:06:18 51°16.187 2°44.321 316.8 14.2 311 9.6
2004-02-10 08:06:24 51°16.203 2°44.292 317.4 14.4 311 9.7
2004-02-10 08:06:29 51°16.216 2°44.269 317.9 14.5 312 10
2004-02-10 08:06:34 51°16.23 2°44.245 319 14.5 312 10.2
2004-02-10 08:06:38 51°16.24 2°44.226 319.2 14.5 312 10.2
2004-02-10 08:06:45 51°16.259 2°44.193 319.2 14.4 313 10.3
2004-02-10 08:06:50 51°16.273 2°44.17 319.7 14.5 313 10.5
2004-02-10 08:06:54 51°16.284 2°44.151 320.2 14.5 314 10.6
2004-02-10 08:06:58 51°16.296 2°44.133 320.7 14.5 314 10.7
2004-02-10 08:07:05 51°16.315 2°44.101 321.2 14.5 315 10.9
2004-02-10 08:07:09 51°16.327 2°44.083 321.7 14.5 315 11.1
2004-02-10 08:07:14 51°16.341 2°44.06 321.2 14.5 313 11.3
2004-02-10 08:07:20 51°16.357 2°44.032 321 14.5 315 11.5
2004-02-10 08:07:25 51°16.371 2°44.009 321.1 14.6 314 11.9
2004-02-10 08:07:29 51°16.383 2°43.99 320.8 14.4 314 12.2
2004-02-10 08:07:34 51°16.397 2°43.968 320.9 14.5 314 12.2
2004-02-10 08:07:40 51°16.413 2°43.94 320.8 14.5 314 12.5
2004-02-10 08:07:44 51°16.425 2°43.922 321.1 14.5 314 12.6
2004-02-10 08:07:50 51°16.441 2°43.894 320.8 14.5 314 12.5
2004-02-10 08:07:54 51°16.452 2°43.876 320.6 14.4 314 12.6
2004-02-10 08:07:59 51°16.467 2°43.854 321.2 14.4 315 12.6
2004-02-10 08:08:04 51°16.481 2°43.831 321.8 14.3 316 12.8
2004-02-10 08:08:09 51°16.495 2°43.809 322.3 14.4 316 13
2004-02-10 08:08:14 51°16.51 2°43.788 323.1 14.4 316 12.8
2004-02-10 08:08:20 51°16.527 2°43.761 323.2 14.3 316 13
2004-02-10 08:08:24 51°16.539 2°43.744 323.7 14.3 317 13.3
2004-02-10 08:08:29 51°16.553 2°43.722 323.6 14.3 316 13.2
2004-02-10 08:08:34 51°16.567 2°43.701 323.8 14.3 317 13.1
2004-02-10 08:08:38 51°16.579 2°43.683 324 14.2 317 13.2
2004-02-10 08:08:44 51°16.596 2°43.657 323.7 14.3 316 13.3
2004-02-10 08:08:50 51°16.613 2°43.631 323.3 14.3 317 13.6
2004-02-10 08:08:54 51°16.625 2°43.614 323 14.3 316 13.4
2004-02-10 08:09:00 51°16.642 2°43.588 323.2 14.3 316 13.1
2004-02-10 08:09:05 51°16.656 2°43.566 323.3 14.2 316 13.2
2004-02-10 08:09:09 51°16.667 2°43.548 323.3 14.2 316 13
2004-02-10 08:09:14 51°16.682 2°43.527 323.9 14.2 317 12.3
2004-02-10 08:09:20 51°16.699 2°43.502 324.2 14.2 318 12.3
2004-02-10 08:09:24 51°16.711 2°43.486 325 14.2 318 12.1
2004-02-10 08:09:30 51°16.729 2°43.461 325.5 14.3 318 12.1
2004-02-10 08:09:34 51°16.741 2°43.444 325.6 14.1 319 12.1
2004-02-10 08:09:40 51°16.759 2°43.419 325.9 14.2 319 12.2
2004-02-10 08:09:44 51°16.771 2°43.403 326.3 14.2 319 12.1
2004-02-10 08:09:49 51°16.786 2°43.383 326.7 14.2 320 12.2
2004-02-10 08:09:54 51°16.801 2°43.362 326.8 14.3 320 12.2
2004-02-10 08:10:00 51°16.818 2°43.337 326.2 14.3 318 11.8
2004-02-10 08:10:04 51°16.83 2°43.32 325.9 14.3 318 12
2004-02-10 08:10:10 51°16.848 2°43.295 326 14.3 319 11.9
2004-02-10 08:10:14 51°16.86 2°43.279 326 14.4 318 11.9
2004-02-10 08:10:19 51°16.875 2°43.258 325.7 14.4 318 11.7
2004-02-10 08:10:24 51°16.89 2°43.236 325.9 14.4 318 11.4
2004-02-10 08:10:29 51°16.905 2°43.216 325.9 14.3 319 11.2
2004-02-10 08:10:34 51°16.92 2°43.195 326 14.3 319 10.3
2004-02-10 08:10:39 51°16.935 2°43.174 325.8 14.1 319 10
2004-02-10 08:10:44 51°16.949 2°43.153 325.8 14.3 318 11.3
2004-02-10 08:10:50 51°16.967 2°43.128 325.8 14.3 318 11.7
2004-02-10 08:10:54 51°16.979 2°43.111 326 14.3 318 12
2004-02-10 08:11:00 51°16.997 2°43.085 325.9 14.5 319 12.2
2004-02-10 08:11:04 51°17.009 2°43.068 325.6 14.6 318 12.1
2004-02-10 08:11:09 51°17.025 2°43.047 325.6 14.5 318 11.7
2004-02-10 08:11:14 51°17.039 2°43.026 325.8 14.4 318 11.2
2004-02-10 08:11:20 51°17.057 2°43 325.8 14.3 318 10.9
2004-02-10 08:11:24 51°17.069 2°42.983 325.7 14.4 318 10.3
2004-02-10 08:11:29 51°17.084 2°42.963 326.3 14.3 319 9.6
2004-02-10 08:11:34 51°17.099 2°42.941 326 14.3 318 9.2
2004-02-10 08:11:40 51°17.116 2°42.916 326.1 14 319 8.7
2004-02-10 08:11:44 51°17.128 2°42.9 326 13.9 318 8
2004-02-10 08:11:49 51°17.142 2°42.879 325.8 14 317 8.3
2004-02-10 08:11:54 51°17.157 2°42.859 326.3 14 319 8.3
2004-02-10 08:12:00 51°17.174 2°42.833 325.9 14.1 318 7.9
2004-02-10 08:12:04 51°17.185 2°42.817 325.4 14 317 7.5
2004-02-10 08:12:10 51°17.202 2°42.791 325 13.9 316 8.7
2004-02-10 08:12:14 51°17.214 2°42.774 324.9 14 317 9.5
2004-02-10 08:12:20 51°17.231 2°42.747 324.5 14 317 9.5
2004-02-10 08:12:25 51°17.246 2°42.724 323.4 14.8 315 8.7
2004-02-10 08:12:29 51°17.257 2°42.706 322.6 14.8 316 8.4
2004-02-10 08:12:34 51°17.272 2°42.683 322.4 14.7 315 9
2004-02-10 08:12:40 51°17.29 2°42.658 323.6 14.4 317 9.3
2004-02-10 08:12:44 51°17.303 2°42.642 326.2 14.4 321 9.4
2004-02-10 08:12:50 51°17.322 2°42.619 328.5 14.5 322 10
2004-02-10 08:12:54 51°17.335 2°42.603 330.4 14.7 324 11
2004-02-10 08:13:00 51°17.356 2°42.581 332.3 14.9 325 12.2
2004-02-10 08:13:04 51°17.37 2°42.565 333.1 15.1 325 14.3
2004-02-10 08:13:10 51°17.391 2°42.542 333.1 15.1 325 16.7
2004-02-10 08:13:14 51°17.405 2°42.526 332.5 15.3 325 18.4
2004-02-10 08:13:20 51°17.425 2°42.503 332.3 15.1 325 19.1
2004-02-10 08:13:24 51°17.439 2°42.488 332.3 15 325 19.8
2004-02-10 08:13:29 51°17.456 2°42.469 332.3 14.9 325 20.1
2004-02-10 08:13:34 51°17.473 2°42.451 332.7 14.8 326 20.5
2004-02-10 08:13:40 51°17.493 2°42.428 332.6 14.8 325 20.7
2004-02-10 08:13:44 51°17.506 2°42.414 332.6 14.7 325 21
2004-02-10 08:13:49 51°17.523 2°42.395 332.7 14.5 325 21.2
2004-02-10 08:13:54 51°17.539 2°42.377 332.4 14.5 325 21.5
2004-02-10 08:14:00 51°17.559 2°42.354 332.3 14.5 325 21.5
2004-02-10 08:14:04 51°17.572 2°42.339 332.1 14.4 324 21.8
2004-02-10 08:14:09 51°17.588 2°42.321 332.1 14.4 324 21.7
2004-02-10 08:14:14 51°17.604 2°42.303 331.6 14.3 324 21.6
2004-02-10 08:14:19 51°17.62 2°42.285 331.7 14.2 325 21.9
2004-02-10 08:14:24 51°17.636 2°42.266 331.8 14.4 324 22
2004-02-10 08:14:29 51°17.652 2°42.248 331.9 14.2 324 22.1
2004-02-10 08:14:34 51°17.668 2°42.229 331.9 14.3 324 22
2004-02-10 08:14:39 51°17.684 2°42.211 331.8 14.2 324 22
2004-02-10 08:14:44 51°17.7 2°42.192 332 14.1 324 22.4
2004-02-10 08:14:49 51°17.716 2°42.174 332 14.2 324 22.3
2004-02-10 08:14:54 51°17.732 2°42.155 331.7 14.1 324 22.5
2004-02-10 08:14:59 51°17.748 2°42.137 331.5 14.1 324 22.4
2004-02-10 08:15:04 51°17.763 2°42.119 331.6 14.1 325 22.3
2004-02-10 08:15:09 51°17.78 2°42.103 334.3 14 328 22.4
2004-02-10 08:15:14 51°17.797 2°42.088 337 14 330 22.5
2004-02-10 08:15:20 51°17.817 2°42.071 338.9 14 331 22.5
2004-02-10 08:15:24 51°17.831 2°42.06 340.5 14 334 22.5
2004-02-10 08:15:29 51°17.849 2°42.047 341.6 14 335 22.6
2004-02-10 08:15:34 51°17.867 2°42.035 343.6 13.9 336 22.6
2004-02-10 08:15:40 51°17.888 2°42.022 345.6 13.8 338 22.5
2004-02-10 08:15:44 51°17.902 2°42.013 347.3 13.8 340 22.7
2004-02-10 08:15:49 51°17.92 2°42.003 348.5 13.9 341 22.6
2004-02-10 08:15:55 51°17.942 2°41.992 349.1 13.8 341 22.6
2004-02-10 08:16:00 51°17.96 2°41.983 349.9 13.8 342 22.6
2004-02-10 08:16:04 51°17.975 2°41.975 350.5 13.9 343 22.5
2004-02-10 08:16:10 51°17.997 2°41.965 350.9 13.9 343 22.5
2004-02-10 08:16:14 51°18.012 2°41.958 351 13.7 343 22.6
2004-02-10 08:16:20 51°18.033 2°41.947 350.7 13.7 342 22.7
2004-02-10 08:16:24 51°18.048 2°41.939 350.5 13.8 342 22.4
2004-02-10 08:16:30 51°18.069 2°41.928 350 13.7 342 22.2
2004-02-10 08:16:34 51°18.084 2°41.92 349.9 13.7 342 22.4
2004-02-10 08:16:40 51°18.106 2°41.909 350 13.8 342 22.2
2004-02-10 08:16:44 51°18.12 2°41.901 349.8 13.9 342 22.1
2004-02-10 08:16:49 51°18.139 2°41.892 349.8 13.9 342 22.2
2004-02-10 08:16:55 51°18.161 2°41.88 349.8 13.9 341 22.1
2004-02-10 08:17:00 51°18.179 2°41.871 349.8 13.9 342 21.8
2004-02-10 08:17:04 51°18.193 2°41.863 350 13.8 342 21.8
2004-02-10 08:17:10 51°18.215 2°41.852 349.7 13.8 342 21.9
2004-02-10 08:17:14 51°18.23 2°41.844 349.6 13.9 342 21.8
2004-02-10 08:17:20 51°18.252 2°41.832 349.7 13.8 342 21.9
2004-02-10 08:17:24 51°18.267 2°41.824 349.4 13.9 342 21.7
2004-02-10 08:17:30 51°18.288 2°41.812 349.4 13.9 341 21.7
2004-02-10 08:17:34 51°18.303 2°41.805 349.1 14 341 21.6
2004-02-10 08:17:40 51°18.325 2°41.793 349.3 13.9 342 21.4
2004-02-10 08:17:45 51°18.344 2°41.783 349.2 14 341 20.9
2004-02-10 08:17:49 51°18.358 2°41.775 349.1 13.9 341 21.5
2004-02-10 08:17:54 51°18.377 2°41.764 349 13.9 341 21.6
2004-02-10 08:18:00 51°18.399 2°41.752 348.8 14 341 21.4
2004-02-10 08:18:04 51°18.413 2°41.745 349 14 341 21.4
2004-02-10 08:18:10 51°18.436 2°41.733 349 14 341 21.4
2004-02-10 08:18:14 51°18.45 2°41.724 349.1 14.1 341 21.5
2004-02-10 08:18:20 51°18.473 2°41.712 349 14.1 341 20.9
2004-02-10 08:18:24 51°18.487 2°41.704 348.9 14.1 341 20.1
2004-02-10 08:18:29 51°18.506 2°41.693 348.5 14 340 20.5
2004-02-10 08:18:35 51°18.528 2°41.68 348.5 14 341 20.8
2004-02-10 08:18:40 51°18.546 2°41.67 348.3 14.1 340 20.7
2004-02-10 08:18:44 51°18.561 2°41.662 348.7 14.1 340 20.7
2004-02-10 08:18:50 51°18.583 2°41.65 349.1 14.1 340 20.4
2004-02-10 08:18:54 51°18.598 2°41.642 349 14 340 20.1
2004-02-10 08:19:00 51°18.62 2°41.629 348.3 14 340 18.1
2004-02-10 08:19:04 51°18.634 2°41.619 347.5 14 339 18.2
2004-02-10 08:19:09 51°18.652 2°41.609 346.8 14 340 18.6
2004-02-10 08:19:14 51°18.671 2°41.599 347.9 13.9 340 19
2004-02-10 08:19:20 51°18.693 2°41.591 351.2 13.8 344 19.3
2004-02-10 08:19:24 51°18.708 2°41.586 354.7 13.8 348 19.2
2004-02-10 08:19:29 51°18.727 2°41.581 357.2 13.7 350 19.2
2004-02-10 08:19:34 51°18.746 2°41.576 359.3 13.8 351 17.4
2004-02-10 08:19:40 51°18.768 2°41.572 0.4 13.8 352 18.2
2004-02-10 08:19:44 51°18.784 2°41.569 1.4 13.7 354 18.8
2004-02-10 08:19:50 51°18.807 2°41.566 2.1 13.7 354 19
2004-02-10 08:19:54 51°18.822 2°41.563 2.9 13.8 355 19.1
2004-02-10 08:20:00 51°18.844 2°41.56 3.5 13.7 355 18
2004-02-10 08:20:04 51°18.859 2°41.558 3.4 13.7 355 17.4
2004-02-10 08:20:09 51°18.878 2°41.555 3 13.7 354 18.1
2004-02-10 08:20:14 51°18.897 2°41.551 2.7 13.8 354 18.7
2004-02-10 08:20:20 51°18.92 2°41.548 2.9 13.8 354 18.6
2004-02-10 08:20:24 51°18.935 2°41.546 3.3 13.8 355 18.4
2004-02-10 08:20:29 51°18.954 2°41.543 3.6 13.8 355 18.3
2004-02-10 08:20:35 51°18.977 2°41.54 3.6 13.7 355 17.5
2004-02-10 08:20:40 51°18.996 2°41.538 3.8 13.7 355 16
2004-02-10 08:20:44 51°19.012 2°41.536 4.2 13.8 355 17.4
2004-02-10 08:20:50 51°19.034 2°41.533 4.5 13.8 355 18.1
2004-02-10 08:20:54 51°19.05 2°41.532 5.2 13.6 357 18.4
2004-02-10 08:21:00 51°19.071 2°41.531 5.9 13.2 357 16.9
2004-02-10 08:21:04 51°19.084 2°41.53 6.8 12.4 358 18.1
2004-02-10 08:21:10 51°19.103 2°41.529 7.2 11.2 358 18.6
2004-02-10 08:21:14 51°19.114 2°41.529 7.6 10.5 359 18.6
2004-02-10 08:21:20 51°19.129 2°41.529 8.3 10 358 18.6
2004-02-10 08:21:24 51°19.139 2°41.529 9.4 9.1 1 18.6
2004-02-10 08:21:29 51°19.15 2°41.53 11.6 8.2 2 18.2
2004-02-10 08:21:35 51°19.161 2°41.531 13.7 7.4 4 17.7
2004-02-10 08:21:40 51°19.17 2°41.533 16.1 6.7 4 17.1
2004-02-10 08:21:44 51°19.176 2°41.534 18.2 5.4 7 16.5
2004-02-10 08:21:50 51°19.183 2°41.535 19.5 4.6 5 16.1
2004-02-10 08:21:54 51°19.187 2°41.536 20.8 3.7 5 15.9
2004-02-10 08:22:00 51°19.192 2°41.536 22.3 3.5 4 16.1
2004-02-10 08:22:04 51°19.194 2°41.536 23.4 2.3   16.3
2004-02-10 08:22:09 51°19.197 2°41.536 24.6 1.9 1 16.6
2004-02-10 08:22:14 51°19.198 2°41.536 25.9 1.3 2 16.7
2004-02-10 08:22:18 51°19.199 2°41.535 27 0.8 322 16.6
2004-02-10 08:22:25 51°19.199 2°41.534 27.8 0.4 300 16.4
2004-02-10 08:22:29 51°19.199 2°41.533 28.9 0.4 300 16.4
2004-02-10 08:22:34 51°19.2 2°41.532 29.4 0.6 295 16.3
2004-02-10 08:22:40 51°19.2 2°41.531 30.8 0.4 310 16.1
2004-02-10 08:22:44 51°19.2 2°41.53 31.9 0.5 305 16
2004-02-10 08:22:49 51°19.201 2°41.53 32.9 0.4 300 16
2004-02-10 08:22:54 51°19.201 2°41.529 33.3 0.6 307 16
2004-02-10 08:23:00 51°19.201 2°41.528 33.7 0.5 313 16
2004-02-10 08:23:04 51°19.202 2°41.527 33.6 0.6 308 16
2004-02-10 08:23:09 51°19.202 2°41.527 33.3 0.2 350 16.2
2004-02-10 08:23:14 51°19.203 2°41.526 33.2 0.5 307 16.1
2004-02-10 08:23:18 51°19.203 2°41.526 32.8 0.2 331 16.2
2004-02-10 08:23:24 51°19.203 2°41.525 32.2 0.5 304 16.1
2004-02-10 08:23:29 51°19.204 2°41.525 31.9 0.5 304 16.2
2004-02-10 08:23:34 51°19.205 2°41.524 31.4 0.5 319 16.3
2004-02-10 08:23:40 51°19.205 2°41.523 30.9 0.3 328 16.4
2004-02-10 08:23:44 51°19.205 2°41.523 30.3 0.6 313 16.5
2004-02-10 08:23:49 51°19.206 2°41.523 28.9 0.2 3 16.6
2004-02-10 08:23:54 51°19.206 2°41.522 28.4 0.7 304 16.7
2004-02-10 08:23:58 51°19.206 2°41.522 27.2 0.3 327 16.8
2004-02-10 08:24:04 51°19.207 2°41.52 25.8 0.4 319 16.9
2004-02-10 08:24:09 51°19.208 2°41.52 24.7 0.4 325 16.9
2004-02-10 08:24:14 51°19.208 2°41.519 23.5 0.6 318 17
2004-02-10 08:24:18 51°19.209 2°41.519 22.2 0.4 329 17.2
2004-02-10 08:24:24 51°19.209 2°41.518 21.3 0.4 319 17.2
2004-02-10 08:24:30 51°19.21 2°41.517 20.3 0.6 312 17.3
2004-02-10 08:24:34 51°19.21 2°41.516 18.8 0.5 325 17.3
2004-02-10 08:24:40 51°19.211 2°41.515 18.1 0.5 303 17.3
2004-02-10 08:24:44 51°19.212 2°41.514 16.9 0.5 309 17.4
2004-02-10 08:24:49 51°19.212 2°41.514 16.4 0.5 313 17.4
2004-02-10 08:24:54 51°19.212 2°41.513 15.8 0.6 318 17.6
2004-02-10 08:24:58 51°19.213 2°41.512 14.9 0.6 310 17.6
2004-02-10 08:25:04 51°19.214 2°41.511 14.2 0.6 311 17.6
2004-02-10 08:25:10 51°19.214 2°41.509 13.4 0.6 314 17.7
2004-02-10 08:25:14 51°19.215 2°41.509 12.8 0.7 307 17.8
2004-02-10 08:25:20 51°19.215 2°41.507 11.9 0.4 322 17.8
2004-02-10 08:25:24 51°19.215 2°41.507 11.1 0.4 323 17.8
2004-02-10 08:25:29 51°19.216 2°41.505 10.6 0.8 302 17.7
2004-02-10 08:25:34 51°19.217 2°41.504 9.9 0.6 314 17.9
2004-02-10 08:25:38 51°19.217 2°41.503 9.4 0.7 302 18
2004-02-10 08:25:44 51°19.218 2°41.502 8.9 0.5 319 18
2004-02-10 08:25:50 51°19.218 2°41.5 8.1 0.8 298 17.9
2004-02-10 08:25:54 51°19.219 2°41.5 8 0.5 319 18
2004-02-10 08:26:00 51°19.22 2°41.498 7.5 0.7 298 18.1
2004-02-10 08:26:04 51°19.22 2°41.497 7.1 0.6 315 18.1
2004-02-10 08:26:09 51°19.22 2°41.496 6.8 0.7 295 18.2
2004-02-10 08:26:14 51°19.221 2°41.495 6.3 0.5 311 18.2
2004-02-10 08:26:18 51°19.221 2°41.494 6.2 0.7 307 18.2
2004-02-10 08:26:24 51°19.222 2°41.492 6.1 0.5 317 18.2
2004-02-10 08:26:29 51°19.222 2°41.491 5.6 0.8 288 18.1
2004-02-10 08:26:34 51°19.223 2°41.49 5.3 0.4 311 18.2
2004-02-10 08:26:38 51°19.223 2°41.489 5 0.7 295 18.3
2004-02-10 08:26:45 51°19.224 2°41.487 4.7 0.6 298 18.4
2004-02-10 08:26:49 51°19.224 2°41.486 4.3 0.7 303 18.3
2004-02-10 08:26:54 51°19.224 2°41.485 4 0.7 291 18.5
2004-02-10 08:27:00 51°19.225 2°41.484 4.2 0.7 289 18.5
2004-02-10 08:27:04 51°19.225 2°41.483 3.9 0.7 293 18.5
2004-02-10 08:27:09 51°19.225 2°41.482 3.6 0.6 304 18.5
2004-02-10 08:27:14 51°19.226 2°41.48 3.1 0.9 288 18.5
2004-02-10 08:27:20 51°19.226 2°41.479 2.9 0.5 310 18.6
2004-02-10 08:27:24 51°19.226 2°41.478 2.5 0.6 291 18.6
2004-02-10 08:27:30 51°19.227 2°41.477 2.1 0.5 300 18.5
2004-02-10 08:27:34 51°19.227 2°41.476 1.7 0.6 295 18.5
2004-02-10 08:27:38 51°19.227 2°41.475 1.8 0.6 304 18.5
2004-02-10 08:27:44 51°19.228 2°41.474 1.7 0.7 295 18.5
2004-02-10 08:27:49 51°19.228 2°41.473 1.9 0.7 295 18.5
2004-02-10 08:27:54 51°19.228 2°41.472 1.5 0.7 290 18.5
2004-02-10 08:28:00 51°19.229 2°41.471 1.4 0.7 290 18.6
2004-02-10 08:28:04 51°19.229 2°41.469 1 0.8 288 18.7
2004-02-10 08:28:09 51°19.23 2°41.469 0.8 0.5 324 18.6
2004-02-10 08:28:14 51°19.231 2°41.467 0.7 0.9 320 18.7
2004-02-10 08:28:18 51°19.233 2°41.466 1.5 1.2 328 18.7
2004-02-10 08:28:24 51°19.236 2°41.465 5 2.1 341 18.7
2004-02-10 08:28:29 51°19.239 2°41.465 9.8 2.2 358 18.6
2004-02-10 08:28:34 51°19.243 2°41.465 16.1 2.6 358 18.6
2004-02-10 08:28:40 51°19.247 2°41.467 23 2.8 8 18.4
2004-02-10 08:28:45 51°19.252 2°41.469 28.7 3.1 19 18.4
2004-02-10 08:28:50 51°19.255 2°41.474 36 3.1 19 18.4
2004-02-10 08:28:54 51°19.258 2°41.477 43.7 3.3 41 18.3
2004-02-10 08:29:00 51°19.262 2°41.484 51.8 3.4 46 18.1
2004-02-10 08:29:04 51°19.264 2°41.49 61.3 3.5 61 17.7
2004-02-10 08:29:09 51°19.266 2°41.497 69.8 3.7 67 16.8
2004-02-10 08:29:14 51°19.266 2°41.506 78.1 3.7 84 15.8
2004-02-10 08:29:20 51°19.266 2°41.516 84.9 3.8 86 16.8
2004-02-10 08:29:24 51°19.265 2°41.523 93.1 4 104 17.6
2004-02-10 08:29:30 51°19.262 2°41.533 101.3 4 104 18
2004-02-10 08:29:34 51°19.26 2°41.539 109.9 4.3 124 18.4
2004-02-10 08:29:40 51°19.255 2°41.549 118.1 4.4 125 18.7
2004-02-10 08:29:45 51°19.25 2°41.555 126.7 4.6 141 18.6
2004-02-10 08:29:50 51°19.244 2°41.561 134.5 4.6 141 18.9
2004-02-10 08:29:54 51°19.239 2°41.564 142.3 4.9 156 18.9
2004-02-10 08:29:59 51°19.232 2°41.567 149.8 5.1 162 19
2004-02-10 08:30:04 51°19.225 2°41.569 157.9 5.2 172 19
2004-02-10 08:30:09 51°19.218 2°41.57 167.6 5.2 172 19
2004-02-10 08:30:14 51°19.21 2°41.568 176.5 5.7 188 18.8
2004-02-10 08:30:19 51°19.202 2°41.565 185 5.7 192 18.6
2004-02-10 08:30:24 51°19.194 2°41.561 193.2 5.8 200 18.1
2004-02-10 08:30:30 51°19.185 2°41.553 201.4 6.2 208 17.7
2004-02-10 08:30:34 51°19.179 2°41.547 206.9 6.6 209 16.3
2004-02-10 08:30:40 51°19.17 2°41.535 213.7 6.9 216 16.6
2004-02-10 08:30:44 51°19.164 2°41.525 220.5 7.4 225 18
2004-02-10 08:30:50 51°19.157 2°41.508 227.8 7.4 225 18.5
2004-02-10 08:30:54 51°19.152 2°41.496 235.1 7.8 235 18.6
2004-02-10 08:31:00 51°19.147 2°41.476 242.1 8.2 244 17.8
2004-02-10 08:31:05 51°19.144 2°41.459 250.2 8.3 252 15.9
2004-02-10 08:31:09 51°19.142 2°41.444 256.9 8.3 252 16.3
2004-02-10 08:31:14 51°19.141 2°41.424 265.3 8.6 264 17.3
2004-02-10 08:31:18 51°19.14 2°41.409 270.8 8.8 265 17.6
2004-02-10 08:31:24 51°19.14 2°41.385 275 9.1 271 17.6
2004-02-10 08:31:29 51°19.141 2°41.364 278.5 9.3 272 17.2
2004-02-10 08:31:34 51°19.143 2°41.343 280.9 9.4 275 16.8
2004-02-10 08:31:40 51°19.145 2°41.317 283.8 9.7 277 15.9
2004-02-10 08:31:44 51°19.148 2°41.3 286.6 10.1 282 14.3
2004-02-10 08:31:49 51°19.151 2°41.277 290.2 10.3 284 16.6
2004-02-10 08:31:54 51°19.156 2°41.255 292.9 10.5 286 17
2004-02-10 08:32:00 51°19.161 2°41.228 294.9 10.6 287 16.2
2004-02-10 08:32:04 51°19.165 2°41.209 295 11 287 17.2
2004-02-10 08:32:09 51°19.169 2°41.185 293.9 11 286 16.6
2004-02-10 08:32:14 51°19.172 2°41.16 291 11.5 283 15.7
2004-02-10 08:32:19 51°19.176 2°41.135 290.1 11.7 282 14
2004-02-10 08:32:24 51°19.179 2°41.109 288.9 11.9 283 13.6
2004-02-10 08:32:29 51°19.182 2°41.083 288.6 12.1 280 14.6
2004-02-10 08:32:34 51°19.186 2°41.056 289.1 12.2 283 16.2
2004-02-10 08:32:40 51°19.191 2°41.024 289.4 12.4 282 16.9
2004-02-10 08:32:44 51°19.194 2°41.002 290.3 12.6 282 17
2004-02-10 08:32:49 51°19.198 2°40.976 290 12.5 284 14.9
2004-02-10 08:32:54 51°19.202 2°40.949 291 12.3 284 15.1
2004-02-10 08:32:58 51°19.205 2°40.929 290.3 12.1 282 14.5
2004-02-10 08:33:04 51°19.209 2°40.899 291.3 11.4 282 14.5
2004-02-10 08:33:10 51°19.214 2°40.871 291.1 11 285 16.8
2004-02-10 08:33:14 51°19.217 2°40.853 291.7 10.7 284 17.9
2004-02-10 08:33:20 51°19.222 2°40.828 293 10.7 284 18.1
2004-02-10 08:33:24 51°19.225 2°40.812 294.1 9.4 287 16.7
2004-02-10 08:33:29 51°19.229 2°40.793 295.6 9 289 14.4
2004-02-10 08:33:34 51°19.233 2°40.775 297.2 8.7 289 13.2
2004-02-10 08:33:40 51°19.237 2°40.755 298.3 8.4 287 14.4
2004-02-10 08:33:44 51°19.24 2°40.742 299.6 7.9 289 15.3
2004-02-10 08:33:50 51°19.245 2°40.724 300.8 7.5 293 15.8
2004-02-10 08:33:54 51°19.248 2°40.712 302.8 7.2 295 16.1
2004-02-10 08:33:59 51°19.253 2°40.699 305.4 6.9 296 16.5
2004-02-10 08:34:04 51°19.258 2°40.687 309.9 6.4 303 16.5
2004-02-10 08:34:09 51°19.263 2°40.677 315.3 6.1 306 16.4
2004-02-10 08:34:14 51°19.268 2°40.667 320.8 5.9 310 15.7
2004-02-10 08:34:19 51°19.273 2°40.659 326.4 5.4 314 14.9
2004-02-10 08:34:24 51°19.278 2°40.651 332.4 5.1 317 13.9
2004-02-10 08:34:29 51°19.284 2°40.645 337.2 4.8 321 12.9
2004-02-10 08:34:34 51°19.289 2°40.638 342 4.6 322 12.3
2004-02-10 08:34:40 51°19.294 2°40.632 345.5 4.3 322 12.1
2004-02-10 08:34:44 51°19.297 2°40.628 347.9 3.5 319 12.3
2004-02-10 08:34:49 51°19.3 2°40.625 352.4 2.8 328 12.9
2004-02-10 08:34:54 51°19.302 2°40.621 358 2.4 320 13.1
2004-02-10 08:34:58 51°19.304 2°40.62 2.9 2 327 13.4
2004-02-10 08:35:04 51°19.306 2°40.616 8.1 1.7 316 13.5
2004-02-10 08:35:10 51°19.308 2°40.614 12.8 1.4 312 13.8
2004-02-10 08:35:14 51°19.309 2°40.612 17.2 1.3 310 14
2004-02-10 08:35:19 51°19.309 2°40.611 21.2 1.3 309 14.2
2004-02-10 08:35:24 51°19.311 2°40.608 24.2 1.3 312 14.2
2004-02-10 08:35:29 51°19.312 2°40.607 26.8 0.9 328 14.2
2004-02-10 08:35:34 51°19.313 2°40.605 29.7 1.1 322 14.3
2004-02-10 08:35:38 51°19.314 2°40.605 32.6 0.8 330 14.4
2004-02-10 08:35:44 51°19.315 2°40.604 35.3 1 327 14.4
2004-02-10 08:35:49 51°19.317 2°40.603 37.9 0.9 340 14.5
2004-02-10 08:35:54 51°19.318 2°40.602 40.4 0.9 339 14.4
2004-02-10 08:35:59 51°19.319 2°40.602 42.3 0.8 339 14.5
2004-02-10 08:36:04 51°19.32 2°40.602 44.7 0.9 343 14.4
2004-02-10 08:36:09 51°19.321 2°40.602 46.4 0.7 358 14.5
2004-02-10 08:36:14 51°19.322 2°40.601 47.9 0.8 356 14.4
2004-02-10 08:36:20 51°19.324 2°40.601 48.3 0.7 13 14.4
2004-02-10 08:36:24 51°19.325 2°40.601 49.3 0.8 8 14.3
2004-02-10 08:36:30 51°19.326 2°40.602 49.3 0.9 5 14.4
2004-02-10 08:36:34 51°19.327 2°40.602 49.5 1 11 14.3
2004-02-10 08:36:40 51°19.329 2°40.602 48.8 1 11 14.2
2004-02-10 08:36:44 51°19.33 2°40.603 48.5 1.2 8 14
2004-02-10 08:36:49 51°19.332 2°40.603 47.9 1.1 18 14
2004-02-10 08:36:54 51°19.333 2°40.604 47.3 1.3 11 13.8
2004-02-10 08:36:58 51°19.335 2°40.605 46.6 1.1 24 13.8
2004-02-10 08:37:04 51°19.337 2°40.606 46.3 1.2 18 13.6
2004-02-10 08:37:09 51°19.338 2°40.607 46.4 1.2 16 13.7
2004-02-10 08:37:14 51°19.34 2°40.607 47.4 1.3 16 13.4
2004-02-10 08:37:18 51°19.341 2°40.609 48.4 1.2 27 13.4
2004-02-10 08:37:25 51°19.344 2°40.61 50.1 1.2 23 13.4
2004-02-10 08:37:29 51°19.345 2°40.611 51.8 1.3 32 13.2
2004-02-10 08:37:34 51°19.346 2°40.612 53.8 1.3 23 13.1
2004-02-10 08:37:38 51°19.347 2°40.613 56 1.2 30 12.8
2004-02-10 08:37:44 51°19.349 2°40.615 58.1 1.2 36 12.6
2004-02-10 08:37:49 51°19.35 2°40.617 60.5 1.2 41 12.5
2004-02-10 08:37:54 51°19.351 2°40.619 63.1 1.2 40 12.5
2004-02-10 08:38:00 51°19.353 2°40.621 66 1.1 51 12.6
2004-02-10 08:38:05 51°19.353 2°40.623 68.9 1.1 58 12.8
2004-02-10 08:38:09 51°19.354 2°40.625 71 1.1 63 13.1
2004-02-10 08:38:14 51°19.354 2°40.627 74.9 1.1 61 13.7
2004-02-10 08:38:18 51°19.355 2°40.629 78.2 1.1 65 14.4
2004-02-10 08:38:24 51°19.355 2°40.631 82 1.1 87 14.9
2004-02-10 08:38:29 51°19.355 2°40.633 84.4 1 82 15.2
2004-02-10 08:38:34 51°19.355 2°40.636 87 1 82 15.5
2004-02-10 08:38:40 51°19.355 2°40.638 88.2 1 82 15.8
2004-02-10 08:38:44 51°19.355 2°40.64 89.7 1.1 96 16.1
2004-02-10 08:38:49 51°19.355 2°40.643 90.3 1.1 96 16.3
2004-02-10 08:38:54 51°19.355 2°40.645 90.9 1.1 89 16.4
2004-02-10 08:39:00 51°19.355 2°40.648 91.1 1.1 96 16.5
2004-02-10 08:39:04 51°19.355 2°40.65 91.5 1.1 101 16.5
2004-02-10 08:39:10 51°19.354 2°40.653 91.7 1.1 101 16.4
2004-02-10 08:39:14 51°19.354 2°40.655 92.3 1.2 95 16.4
2004-02-10 08:39:20 51°19.354 2°40.658 92.7 1.2 102 16.2
2004-02-10 08:39:24 51°19.354 2°40.66 92.9 1.2 93 16.2
2004-02-10 08:39:29 51°19.353 2°40.663 93.7 1.3 104 16
2004-02-10 08:39:34 51°19.353 2°40.666 93.7 1.2 95 15.8
2004-02-10 08:39:40 51°19.353 2°40.669 94.7 1.2 104 15.6
2004-02-10 08:39:44 51°19.353 2°40.671 95.3 1.2 104 15.5
2004-02-10 08:39:49 51°19.352 2°40.673 96.5 1.1 108 15.4
2004-02-10 08:39:54 51°19.352 2°40.676 97.7 1.1 99 15.2
2004-02-10 08:39:59 51°19.351 2°40.678 98.8 1.1 115 15.1
2004-02-10 08:40:04 51°19.351 2°40.68 100.1 1.1 116 14.9
2004-02-10 08:40:10 51°19.35 2°40.683 101.3 1 114 14.6
2004-02-10 08:40:14 51°19.35 2°40.684 102.6 1.1 116 14.4
2004-02-10 08:40:20 51°19.348 2°40.687 104 1.1 116 14.2
2004-02-10 08:40:24 51°19.348 2°40.688 105.6 1 118 13.9
2004-02-10 08:40:29 51°19.347 2°40.69 107.8 1.2 136 13.7
2004-02-10 08:40:34 51°19.346 2°40.692 109.2 1 120 13.4
2004-02-10 08:40:38 51°19.345 2°40.693 111.4 1.1 139 13.1
2004-02-10 08:40:45 51°19.344 2°40.696 112.8 1.1 129 13
2004-02-10 08:40:50 51°19.342 2°40.697 114.9 1.1 137 12.7
2004-02-10 08:40:54 51°19.341 2°40.698 116.8 1.1 132 12.5
2004-02-10 08:41:00 51°19.339 2°40.7 118.8 1.2 149 12.4
2004-02-10 08:41:04 51°19.338 2°40.701 121.3 1.2 151 12.1
2004-02-10 08:41:09 51°19.336 2°40.702 123.6 1.4 157 12.1
2004-02-10 08:41:14 51°19.335 2°40.703 125.9 1.1 144 11.9
2004-02-10 08:41:18 51°19.333 2°40.704 128.4 1.3 162 12
2004-02-10 08:41:24 51°19.331 2°40.704 129.9 1.3 168 11.8
2004-02-10 08:41:29 51°19.329 2°40.705 132.8 1.4 171 11.8
2004-02-10 08:41:34 51°19.327 2°40.705 134.9 1.3 167 11.9
2004-02-10 08:41:40 51°19.325 2°40.706 137.2 1.4 174 12
2004-02-10 08:41:44 51°19.324 2°40.706 139.8 1.4 177 12.3
2004-02-10 08:41:49 51°19.322 2°40.706 141.2 1.5 180 12.2
2004-02-10 08:41:54 51°19.32 2°40.706 143.9 1.4 179 12.4
2004-02-10 08:41:58 51°19.318 2°40.706 146.6 1.6 187 12.8
2004-02-10 08:42:04 51°19.316 2°40.706 148.3 1.4 188 13
2004-02-10 08:42:09 51°19.314 2°40.705 150.6 1.5 188 13.1
2004-02-10 08:42:14 51°19.312 2°40.705 152.4 1.4 186 13.4
2004-02-10 08:42:20 51°19.31 2°40.704 154.5 1.5 192 13.6
2004-02-10 08:42:24 51°19.309 2°40.704 156.2 1.4 192 13.9
2004-02-10 08:42:29 51°19.307 2°40.703 158.1 1.5 196 14
2004-02-10 08:42:34 51°19.305 2°40.702 159.9 1.5 192 14.3
2004-02-10 08:42:39 51°19.303 2°40.701 160.9 1.5 198 14.5
2004-02-10 08:42:44 51°19.301 2°40.701 162.5 1.4 191 14.7
2004-02-10 08:42:49 51°19.299 2°40.699 163.7 1.5 200 14.8
2004-02-10 08:42:54 51°19.297 2°40.698 164.3 1.4 199 15
2004-02-10 08:42:58 51°19.296 2°40.698 164.5 1.4 203 15.1
2004-02-10 08:43:05 51°19.294 2°40.696 165.3 1.2 196 15.3
2004-02-10 08:43:10 51°19.292 2°40.694 165.3 1.2 196 15.4
2004-02-10 08:43:14 51°19.29 2°40.694 166 1.2 194 15.5
2004-02-10 08:43:20 51°19.289 2°40.693 166.1 1.4 209 15.7
2004-02-10 08:43:24 51°19.287 2°40.692 165.9 1.3 205 15.7
2004-02-10 08:43:29 51°19.286 2°40.691 166.5 1.3 201 15.8
2004-02-10 08:43:34 51°19.284 2°40.689 166.6 1.2 202 15.9
2004-02-10 08:43:40 51°19.282 2°40.688 166.4 1.2 202 16
2004-02-10 08:43:44 51°19.281 2°40.687 166.2 1.3 203 16.1
2004-02-10 08:43:49 51°19.28 2°40.686 166 1.3 201 16.1
2004-02-10 08:43:54 51°19.278 2°40.685 165.9 1.3 202 16.2
2004-02-10 08:43:59 51°19.276 2°40.684 165.1 1.4 202 16.3
2004-02-10 08:44:04 51°19.274 2°40.683 164.8 1.3 199 16.3
2004-02-10 08:44:09 51°19.273 2°40.682 164.2 1.2 199 16.5
2004-02-10 08:44:14 51°19.271 2°40.681 163.9 1.3 200 16.4
2004-02-10 08:44:20 51°19.269 2°40.68 163.2 1.2 194 16.4
2004-02-10 08:44:24 51°19.268 2°40.68 162.9 1.3 197 16.4
2004-02-10 08:44:29 51°19.266 2°40.679 162.3 1.3 197 16.4
2004-02-10 08:44:34 51°19.264 2°40.678 161.6 1.3 201 16.4
2004-02-10 08:44:40 51°19.262 2°40.677 160.4 1.2 191 16.2
2004-02-10 08:44:44 51°19.261 2°40.676 160 1.2 195 16.2
2004-02-10 08:44:49 51°19.259 2°40.675 158.8 1.2 196 16
2004-02-10 08:44:54 51°19.257 2°40.674 158.3 1.6 205 15.9
2004-02-10 08:44:58 51°19.256 2°40.674 156.6 1 183 15.6
2004-02-10 08:45:04 51°19.254 2°40.673 156.3 1.1 185 15.4
2004-02-10 08:45:09 51°19.252 2°40.671 155.1 1.5 205 15.2
2004-02-10 08:45:14 51°19.251 2°40.671 154 1.3 198 14.9
2004-02-10 08:45:20 51°19.248 2°40.669 153.1 1.4 204 14.9
2004-02-10 08:45:24 51°19.247 2°40.668 151.6 1.1 192 14.3
2004-02-10 08:45:29 51°19.245 2°40.667 150.5 1.3 203 14.1
2004-02-10 08:45:34 51°19.244 2°40.666 148.2 1.3 206 13.8
2004-02-10 08:45:38 51°19.243 2°40.665 147 1.2 198 13.4
2004-02-10 08:45:45 51°19.24 2°40.664 145.8 1.2 201 13.1
2004-02-10 08:45:49 51°19.239 2°40.663 144 1.1 197 12.6
2004-02-10 08:45:54 51°19.238 2°40.662 142.4 1.3 204 12.7
2004-02-10 08:45:58 51°19.236 2°40.662 140.7 1.1 200 12.5
2004-02-10 08:46:05 51°19.234 2°40.661 139.6 1.3 201 12.3
2004-02-10 08:46:09 51°19.233 2°40.66 138.9 1.3 199 12.4
2004-02-10 08:46:14 51°19.232 2°40.659 138 0.9 189 12.3
2004-02-10 08:46:19 51°19.23 2°40.659 137.3 1.3 200 12.4
2004-02-10 08:46:24 51°19.229 2°40.658 136.2 1.2 197 12.4
2004-02-10 08:46:29 51°19.227 2°40.658 135.7 1 189 12.4
2004-02-10 08:46:34 51°19.226 2°40.657 135 1.3 197 12.5
2004-02-10 08:46:40 51°19.224 2°40.658 135.2 1.1 189 12.7
2004-02-10 08:46:44 51°19.223 2°40.657 134.5 1 190 13
2004-02-10 08:46:49 51°19.221 2°40.657 133.9 1.1 187 13
2004-02-10 08:46:54 51°19.221 2°40.657 133.4 1 175 13.2
2004-02-10 08:47:00 51°19.218 2°40.657 133.9 1.2 190 13.3
2004-02-10 08:47:04 51°19.217 2°40.657 134.2 1.1 179 13.5
2004-02-10 08:47:09 51°19.215 2°40.657 136.4 1.3 185 13.6
2004-02-10 08:47:14 51°19.214 2°40.657 138.6 1.2 180 13.8
2004-02-10 08:47:18 51°19.212 2°40.657 141.4 1.4 181 13.9
2004-02-10 08:47:24 51°19.21 2°40.657 144.3 1.4 182 14.2
2004-02-10 08:47:29 51°19.208 2°40.656 147.2 1.4 188 14.4
2004-02-10 08:47:34 51°19.206 2°40.656 149.8 1.4 183 14.5
2004-02-10 08:47:40 51°19.204 2°40.655 152.8 1.5 190 14.6
2004-02-10 08:47:44 51°19.202 2°40.655 155.6 1.6 194 14.8
2004-02-10 08:47:49 51°19.2 2°40.654 158.2 1.5 191 15
2004-02-10 08:47:54 51°19.198 2°40.653 160.3 1.5 194 15.1
2004-02-10 08:47:59 51°19.196 2°40.652 163.2 1.6 195 15.3
2004-02-10 08:48:04 51°19.194 2°40.651 165.5 1.7 197 15.5
2004-02-10 08:48:09 51°19.192 2°40.65 167.3 1.6 198 15.7
2004-02-10 08:48:14 51°19.19 2°40.649 169.5 1.6 198 15.7
2004-02-10 08:48:20 51°19.187 2°40.647 171.3 1.7 200 15.9
2004-02-10 08:48:25 51°19.185 2°40.646 172.7 1.7 202 16.1
2004-02-10 08:48:29 51°19.183 2°40.645 174.9 1.7 202 16.2